Time;durP1;ratioP1;P1;durP2;ratioP2;P2;SDS_P1;SDS_P2;PMS_P1;PMS_P2;Temp;Humidity;BMP_temperature;BMP_pressure;BME280_temperature;BME280_humidity;BME280_pressure;Samples;Min_cycle;Max_cycle;Signal;HPM_P1;HPM_P2
2022/11/02 00:01:20;;;;;;;;;;;;;;;19.27;73.72;101199.54;2287291;78;51546;-75
2022/11/02 00:04:22;;;;;;;;;;;;;;;19.28;73.62;101198.52;2288914;77;51435;-76
2022/11/02 00:07:24;;;;;;;;;;;;;;;19.26;73.47;101201.87;2259530;77;51078;-76
2022/11/02 00:10:25;;;;;;;;;;;;;;;19.26;73.56;101206.41;2259384;77;50394;-75
2022/11/02 00:13:27;;;;;;;;;;;;;;;19.26;73.49;101208.58;2259366;77;50096;-77
2022/11/02 00:16:28;;;;;;;;;;;;;;;19.26;73.55;101200.53;2259660;77;52399;-76
2022/11/02 00:19:30;;;;;;;;;;;;;;;19.27;73.65;101200.88;2259483;77;49554;-76
2022/11/02 00:22:32;;;;;;;;;;;;;;;19.26;73.65;101200.53;2292777;77;50387;-76
2022/11/02 00:25:33;;;;;;;;;;;;;;;19.26;73.62;101198.36;2292654;77;51588;-75
2022/11/02 00:28:35;;;;;;;;;;;;;;;19.25;73.66;101202.06;2264059;77;51515;-75
2022/11/02 00:31:37;;;;;;;;;;;;;;;19.25;73.60;101200.72;2242596;78;51002;-75
2022/11/02 00:34:38;;;;;;;;;;;;;;;19.25;73.56;101193.50;2242805;78;50405;-76
2022/11/02 00:37:40;;;;;;;;;;;;;;;19.24;73.29;101196.34;2242896;78;50343;-76
2022/11/02 00:40:41;;;;;;;;;;;;;;;19.23;73.49;101204.08;2275688;78;50357;-76
2022/11/02 00:43:43;;;;;;;;;;;;;;;19.23;73.48;101204.91;2218852;78;50075;-75
2022/11/02 00:46:44;;;;;;;;;;;;;;;19.18;73.78;101205.93;2245965;78;50776;-75
2022/11/02 00:49:46;;;;;;;;;;;;;;;19.21;73.69;101204.75;2278107;78;50725;-75
2022/11/02 00:52:48;;;;;;;;;;;;;;;19.22;73.41;101200.56;2245968;78;50790;-76
2022/11/02 00:55:50;;;;;;;;;;;;;;;19.24;73.33;101209.28;2218106;78;52495;-75
2022/11/02 00:58:51;;;;;;;;;;;;;;;19.21;73.32;101200.72;2260614;77;52420;-75
2022/11/02 01:01:53;;;;;;;;;;;;;;;19.24;73.37;101209.77;2293190;77;50754;-75
2022/11/02 01:04:55;;;;;;;;;;;;;;;19.24;73.56;101209.28;2292904;77;51557;-75
2022/11/02 01:07:56;;;;;;;;;;;;;;;19.26;73.54;101207.75;2238569;78;51777;-76
2022/11/02 01:10:59;;;;;;;;;;;;;;;19.24;73.26;101197.20;2287541;78;51520;-76
2022/11/02 01:14:01;;;;;;;;;;;;;;;19.26;73.18;101196.50;2286852;78;51529;-75
2022/11/02 01:17:03;;;;;;;;;;;;;;;19.26;73.54;101192.48;2261771;78;50818;-75
2022/11/02 01:20:05;;;;;;;;;;;;;;;19.23;73.21;101198.20;2240152;78;50137;-75
2022/11/02 01:23:07;;;;;;;;;;;;;;;19.21;73.06;101193.51;2287469;78;50667;-75
2022/11/02 01:26:09;;;;;;;;;;;;;;;19.22;73.23;101200.56;2260509;78;50639;-76
2022/11/02 01:29:11;;;;;;;;;;;;;;;19.21;73.08;101202.89;2271844;78;50489;-76
2022/11/02 01:32:12;;;;;;;;;;;;;;;19.21;73.05;101202.89;2224144;79;52647;-75
2022/11/02 01:35:15;;;;;;;;;;;;;;;19.20;72.98;101199.89;2249198;79;50357;-75
2022/11/02 01:38:17;;;;;;;;;;;;;;;19.21;72.91;101200.21;2224277;79;51561;-75
2022/11/02 01:41:18;;;;;;;;;;;;;;;19.19;72.85;101198.23;2249393;79;51499;-75
2022/11/02 01:44:21;;;;;;;;;;;;;;;19.21;72.94;101198.05;2223785;79;50963;-75
2022/11/02 01:47:27;;;;;;;;;;;;;;;19.22;72.88;101193.86;2241283;79;52207;-75
2022/11/02 01:50:28;;;;;;;;;;;;;;;19.24;72.98;101190.98;2285460;78;50851;-75
2022/11/02 01:53:30;;;;;;;;;;;;;;;19.24;72.69;101182.45;2287075;78;51630;-75
2022/11/02 01:56:32;;;;;;;;;;;;;;;19.21;73.07;101178.75;2252146;78;51076;-74
2022/11/02 01:59:35;;;;;;;;;;;;;;;19.18;73.04;101185.81;2259846;78;50750;-74
2022/11/02 02:02:38;;;;;;;;;;;;;;;19.19;73.01;101178.59;2249499;79;50818;-74
2022/11/02 02:05:40;;;;;;;;;;;;;;;19.18;73.03;101184.47;2255848;78;50858;-74
2022/11/02 02:08:43;;;;;;;;;;;;;;;19.20;73.23;101177.60;2263848;78;51621;-75
2022/11/02 02:11:44;;;;;;;;;;;;;;;19.19;73.18;101178.59;2263932;78;50403;-74
2022/11/02 02:14:46;;;;;;;;;;;;;;;19.17;73.15;101178.79;2263695;78;50743;-75
2022/11/02 02:17:49;;;;;;;;;;;;;;;19.17;73.08;101176.10;2263908;78;51428;-74
2022/11/02 02:20:58;;;;;;;;;;;;;;;19.17;73.11;101174.77;2228151;78;52677;-75
2022/11/02 02:24:17;;;;;;;;;;;;;;;19.19;72.86;101168.73;2263890;78;51595;-75
2022/11/02 02:27:20;;;;;;;;;;;;;;;19.16;73.09;101169.05;2263941;78;51548;-75
2022/11/02 02:30:22;;;;;;;;;;;;;;;19.17;73.12;101177.45;2229532;78;50308;-76
2022/11/02 02:33:25;;;;;;;;;;;;;;;19.17;73.04;101172.08;2274942;77;52615;-76
2022/11/02 02:36:31;;;;;;;;;;;;;;;19.19;73.18;101170.55;2262824;78;51528;-75
2022/11/02 02:39:35;;;;;;;;;;;;;;;19.14;72.79;101164.39;2263890;77;50500;-75
2022/11/02 02:42:38;;;;;;;;;;;;;;;19.14;72.85;101156.34;2263888;78;50451;-75
2022/11/02 02:45:41;;;;;;;;;;;;;;;19.12;73.00;101157.02;2229076;78;51409;-75
2022/11/02 02:48:43;;;;;;;;;;;;;;;19.10;72.86;101161.20;2263396;77;51500;-75
2022/11/02 02:51:45;;;;;;;;;;;;;;;19.14;72.91;101162.53;2264020;78;51608;-75
2022/11/02 02:54:46;;;;;;;;;;;;;;;19.14;72.99;101157.17;2263796;78;50635;-75
2022/11/02 02:57:48;;;;;;;;;;;;;;;19.13;73.35;101164.03;2279233;77;49270;-76
2022/11/02 03:00:51;;;;;;;;;;;;;;;19.11;73.40;101163.37;2264052;78;50225;-75
2022/11/02 03:03:53;;;;;;;;;;;;;;;19.13;73.66;101160.84;2263895;77;50696;-76
2022/11/02 03:06:56;;;;;;;;;;;;;;;19.14;73.39;101161.70;2290221;77;50780;-75
2022/11/02 03:10:02;;;;;;;;;;;;;;;19.12;73.04;101165.89;2294912;77;49856;-75
2022/11/02 03:13:05;;;;;;;;;;;;;;;19.14;73.01;101163.05;2299793;77;51593;-75
2022/11/02 03:16:14;;;;;;;;;;;;;;;19.17;72.84;101160.52;2300293;77;50371;-75
2022/11/02 03:19:30;;;;;;;;;;;;;;;19.16;72.78;101156.98;2300088;77;51513;-76
2022/11/02 03:22:36;;;;;;;;;;;;;;;19.12;73.19;101151.14;2293890;77;51872;-77
2022/11/02 03:25:48;;;;;;;;;;;;;;;19.14;73.36;101147.78;2300263;77;50801;-76
2022/11/02 03:28:52;;;;;;;;;;;;;;;19.14;73.39;101155.00;2274697;77;52303;-76
2022/11/02 03:31:58;;;;;;;;;;;;;;;19.14;73.44;101161.19;2254705;79;51488;-76
2022/11/02 03:35:02;;;;;;;;;;;;;;;19.14;73.56;101158.51;2221919;79;51362;-76
2022/11/02 03:38:11;;;;;;;;;;;;;;;19.15;73.57;101158.00;2254839;79;50291;-76
2022/11/02 03:41:12;;;;;;;;;;;;;;;19.14;73.77;101162.53;2254510;78;50449;-76
2022/11/02 03:44:15;;;;;;;;;;;;;;;19.12;73.73;101150.30;2215973;80;50366;-76
2022/11/02 03:47:17;;;;;;;;;;;;;;;19.12;73.68;101156.50;2204042;79;50105;-76
2022/11/02 03:50:19;;;;;;;;;;;;;;;19.14;73.62;101167.06;2254614;78;51571;-76
2022/11/02 03:53:23;;;;;;;;;;;;;;;19.13;73.67;101166.72;2232948;79;50352;-76
2022/11/02 03:56:26;;;;;;;;;;;;;;;19.13;73.68;101164.87;2232796;78;50378;-76
2022/11/02 03:59:29;;;;;;;;;;;;;;;19.13;73.69;101160.84;2233663;77;50993;-75
2022/11/02 04:02:30;;;;;;;;;;;;;;;19.14;73.56;101157.68;2254666;77;51482;-76
2022/11/02 04:05:35;;;;;;;;;;;;;;;19.14;73.64;101158.51;2254448;77;51480;-76
2022/11/02 04:08:41;;;;;;;;;;;;;;;19.13;73.56;101153.30;2254681;78;51578;-76
2022/11/02 04:15:02;;;;;;;;;;;;;;;19.13;73.58;101152.80;2254793;79;22370;-76
2022/11/02 04:21:23;;;;;;;;;;;;;;;19.12;73.66;101151.14;2264998;77;22326;-75
2022/11/02 04:27:45;;;;;;;;;;;;;;;19.11;73.54;101153.50;2264221;77;22390;-75
2022/11/02 04:30:46;;;;;;;;;;;;;;;19.10;73.31;101146.95;2256431;77;50386;-75
2022/11/02 04:33:48;;;;;;;;;;;;;;;19.12;73.30;101149.80;2254532;79;50720;-75
2022/11/02 04:36:50;;;;;;;;;;;;;;;19.10;73.44;101150.47;2210123;78;50952;-75
2022/11/02 04:39:51;;;;;;;;;;;;;;;19.10;73.43;101149.64;2233897;79;51514;-76
2022/11/02 04:42:53;;;;;;;;;;;;;;;19.10;73.33;101154.48;2254606;78;51497;-77
2022/11/02 04:45:56;;;;;;;;;;;;;;;19.10;73.37;101150.47;2254722;78;51512;-76
2022/11/02 04:48:58;;;;;;;;;;;;;;;19.11;73.49;101151.30;2233821;77;51829;-76
2022/11/02 04:51:59;;;;;;;;;;;;;;;19.11;73.56;101151.30;2254697;78;50355;-76
2022/11/02 04:55:01;;;;;;;;;;;;;;;19.11;73.53;101162.89;2233953;79;50604;-75
2022/11/02 04:58:02;;;;;;;;;;;;;;;19.09;73.54;101153.34;2270627;77;52436;-75
2022/11/02 05:01:05;;;;;;;;;;;;;;;19.11;73.54;101163.37;2210057;79;51022;-76
2022/11/02 05:04:08;;;;;;;;;;;;;;;19.11;73.65;101155.32;2254218;78;51566;-74
2022/11/02 05:07:10;;;;;;;;;;;;;;;19.11;73.56;101154.84;2247696;79;50315;-76
2022/11/02 05:10:12;;;;;;;;;;;;;;;19.11;73.56;101156.66;2240584;78;50460;-76
2022/11/02 05:13:13;;;;;;;;;;;;;;;19.11;73.51;101156.66;2208081;79;49625;-76
2022/11/02 05:16:15;;;;;;;;;;;;;;;19.08;73.46;101161.04;2232024;78;50359;-76
2022/11/02 05:19:17;;;;;;;;;;;;;;;19.07;73.26;101160.21;2232140;79;49721;-76
2022/11/02 05:22:20;;;;;;;;;;;;;;;19.09;73.18;101160.05;2213169;79;50429;-76
2022/11/02 05:25:21;;;;;;;;;;;;;;;19.09;73.16;101154.69;2250691;78;50597;-76
2022/11/02 05:28:23;;;;;;;;;;;;;;;19.08;73.12;101150.31;2256618;76;51510;-76
2022/11/02 05:31:25;;;;;;;;;;;;;;;19.11;73.23;101168.73;2274459;78;52304;-76
2022/11/02 05:34:26;;;;;;;;;;;;;;;19.10;73.47;101161.70;2212959;79;51399;-76
2022/11/02 05:37:28;;;;;;;;;;;;;;;19.09;73.28;101156.03;2250762;78;52534;-74
2022/11/02 05:40:29;;;;;;;;;;;;;;;19.10;73.10;101157.69;2285661;78;50404;-75
2022/11/02 05:43:31;;;;;;;;;;;;;;;19.08;73.20;101147.12;2285322;78;50361;-74
2022/11/02 05:46:32;;;;;;;;;;;;;;;19.06;73.00;101157.69;2305163;76;49916;-76
2022/11/02 05:49:34;;;;;;;;;;;;;;;19.05;73.19;101166.76;2230779;79;50190;-75
2022/11/02 05:52:36;;;;;;;;;;;;;;;19.05;73.09;101164.08;2265326;78;50261;-75
2022/11/02 05:55:37;;;;;;;;;;;;;;;18.99;72.47;101163.44;2287863;77;50800;-75
2022/11/02 05:58:39;;;;;;;;;;;;;;;19.00;72.50;101161.08;2245631;76;50621;-74
2022/11/02 06:01:40;;;;;;;;;;;;;;;18.99;72.79;101152.71;2298653;76;51528;-74
2022/11/02 06:04:42;;;;;;;;;;;;;;;18.99;72.54;101152.71;2235399;79;50738;-73
2022/11/02 06:07:44;;;;;;;;;;;;;;;19.08;72.97;101151.66;2297635;77;51903;-76
2022/11/02 06:10:47;;;;;;;;;;;;;;;19.13;72.79;101153.30;2285889;78;51564;-73
2022/11/02 06:13:49;;;;;;;;;;;;;;;19.14;72.98;101163.88;2263176;77;24002;-73
2022/11/02 06:16:51;;;;;;;;;;;;;;;19.15;72.91;101160.69;2248143;79;50730;-73
2022/11/02 06:19:52;;;;;;;;;;;;;;;19.15;72.76;101164.20;2285913;76;51564;-73
2022/11/02 06:22:54;;;;;;;;;;;;;;;19.18;72.63;101167.03;2285771;78;50710;-74
2022/11/02 06:25:56;;;;;;;;;;;;;;;19.13;73.03;101157.33;2264919;76;49614;-74
2022/11/02 06:28:58;;;;;;;;;;;;;;;19.09;73.26;101164.08;2229007;79;51512;-75
2022/11/02 06:32:00;;;;;;;;;;;;;;;19.06;73.10;101157.20;2273772;77;50615;-74
2022/11/02 06:35:01;;;;;;;;;;;;;;;19.05;73.63;101161.39;2227444;80;51857;-75
2022/11/02 06:38:03;;;;;;;;;;;;;;;19.07;73.58;101160.72;2228572;78;51001;-74
2022/11/02 06:41:05;;;;;;;;;;;;;;;19.08;74.01;101162.37;2228572;78;50229;-74
2022/11/02 06:44:07;;;;;;;;;;;;;;;19.09;73.96;101168.09;2260432;78;51528;-75
2022/11/02 06:47:08;;;;;;;;;;;;;;;19.07;73.36;101172.28;2228512;78;51498;-75
2022/11/02 06:50:10;;;;;;;;;;;;;;;19.11;72.80;101176.78;2207794;77;50978;-75
2022/11/02 06:53:11;;;;;;;;;;;;;;;19.11;71.99;101179.46;2265496;77;50291;-75
2022/11/02 06:56:13;;;;;;;;;;;;;;;19.08;72.11;101181.16;2295244;77;50302;-74
2022/11/02 06:59:15;;;;;;;;;;;;;;;19.05;71.94;101181.00;2244950;77;51538;-75
2022/11/02 07:02:17;;;;;;;;;;;;;;;19.12;72.51;101187.86;2265527;77;50419;-75
2022/11/02 07:05:18;;;;;;;;;;;;;;;19.14;72.48;101189.87;2265469;77;50439;-76
2022/11/02 07:08:20;;;;;;;;;;;;;;;19.17;72.53;101192.20;2276977;77;50789;-76
2022/11/02 07:11:21;;;;;;;;;;;;;;;19.15;72.88;101194.21;2260762;78;50393;-77
2022/11/02 07:14:23;;;;;;;;;;;;;;;19.18;72.75;101195.20;2228256;78;49656;-77
2022/11/02 07:17:24;;;;;;;;;;;;;;;19.09;69.56;101185.53;2228381;78;50747;-75
2022/11/02 07:20:26;;;;;;;;;;;;;;;19.07;71.14;101185.69;2260685;78;51572;-76
2022/11/02 07:23:28;;;;;;;;;;;;;;;19.06;70.69;101180.48;2228123;78;51546;-76
2022/11/02 07:26:29;;;;;;;;;;;;;;;19.03;70.56;101184.86;2200521;78;51858;-76
2022/11/02 07:29:31;;;;;;;;;;;;;;;19.04;70.42;101182.02;2216470;78;52289;-78
2022/11/02 07:32:34;;;;;;;;;;;;;;;19.03;70.43;101180.84;2224299;78;51424;-76
2022/11/02 07:35:36;;;;;;;;;;;;;;;19.02;70.59;101187.22;2220608;79;51710;-76
2022/11/02 07:38:37;;;;;;;;;;;;;;;19.02;70.84;101180.52;2169633;80;50971;-78
2022/11/02 07:41:39;;;;;;;;;;;;;;;19.03;70.97;101199.61;2224142;80;50364;-76
2022/11/02 07:44:40;;;;;;;;;;;;;;;19.00;71.07;101195.94;2192621;80;50116;-75
2022/11/02 07:47:43;;;;;;;;;;;;;;;19.01;71.16;101193.58;2192830;80;50445;-77
2022/11/02 07:50:45;;;;;;;;;;;;;;;19.03;71.42;101202.30;2192676;80;51044;-73
2022/11/02 07:53:46;;;;;;;;;;;;;;;19.02;71.31;101204.66;2227077;78;51543;-71
2022/11/02 07:56:48;;;;;;;;;;;;;;;19.06;71.54;101192.55;2222633;78;51523;-73
2022/11/02 07:59:50;;;;;;;;;;;;;;;19.05;72.28;101201.11;2238013;78;51504;-72
2022/11/02 08:02:55;;;;;;;;;;;;;;;19.06;72.56;101195.23;2215062;78;52397;-73
2022/11/02 08:05:58;;;;;;;;;;;;;;;19.10;72.69;101200.60;2239320;78;50683;-72
2022/11/02 08:08:59;;;;;;;;;;;;;;;19.12;72.42;101205.30;2239911;78;50463;-72
2022/11/02 08:12:01;;;;;;;;;;;;;;;19.14;72.50;101205.97;2263797;77;50415;-72
2022/11/02 08:15:02;;;;;;;;;;;;;;;19.13;72.43;101201.59;2206698;78;49600;-71
2022/11/02 08:18:09;;;;;;;;;;;;;;;19.14;72.43;101201.94;2230988;78;51935;-72
2022/11/02 08:21:10;;;;;;;;;;;;;;;19.11;72.27;101196.90;2263761;78;50684;-72
2022/11/02 08:24:12;;;;;;;;;;;;;;;19.06;71.90;101197.44;2231315;78;51490;-72
2022/11/02 08:27:13;;;;;;;;;;;;;;;19.09;71.70;101194.92;2240963;77;51538;-72
2022/11/02 08:30:15;;;;;;;;;;;;;;;19.04;71.79;101206.16;2264014;77;50427;-72
2022/11/02 08:33:17;;;;;;;;;;;;;;;19.04;71.87;101212.86;2268186;77;50409;-72
2022/11/02 08:36:18;;;;;;;;;;;;;;;19.03;71.93;101214.36;2279732;77;51411;-72
2022/11/02 08:39:20;;;;;;;;;;;;;;;19.01;71.87;101212.35;2231186;78;51076;-72
2022/11/02 08:42:22;;;;;;;;;;;;;;;19.00;71.83;101211.52;2231299;78;51488;-72
2022/11/02 08:45:23;;;;;;;;;;;;;;;18.99;71.89;101214.39;2231767;78;50119;-71
2022/11/02 08:48:25;;;;;;;;;;;;;;;18.98;71.82;101215.38;2263610;78;50122;-72
2022/11/02 08:51:27;;;;;;;;;;;;;;;18.97;71.77;101212.38;2231531;78;51196;-72
2022/11/02 08:54:28;;;;;;;;;;;;;;;18.96;71.86;101209.34;2231097;78;50733;-72
2022/11/02 08:57:30;;;;;;;;;;;;;;;18.96;71.77;101203.50;2242009;77;50361;-72
2022/11/02 09:00:32;;;;;;;;;;;;;;;18.93;71.72;101200.66;2263534;77;50490;-71
2022/11/02 09:03:33;;;;;;;;;;;;;;;18.96;71.85;101217.39;2243719;77;51488;-71
2022/11/02 09:06:35;;;;;;;;;;;;;;;18.94;71.78;101209.54;2263998;77;50410;-71
2022/11/02 09:09:36;;;;;;;;;;;;;;;18.95;71.74;101211.70;2278335;77;50636;-71
2022/11/02 09:12:38;;;;;;;;;;;;;;;18.95;71.74;101217.91;2282674;78;50743;-71
2022/11/02 09:15:39;;;;;;;;;;;;;;;19.03;72.18;101208.48;2238617;79;50997;-73
2022/11/02 09:18:41;;;;;;;;;;;;;;;19.10;72.24;101211.33;2239147;79;49759;-72
2022/11/02 09:21:43;;;;;;;;;;;;;;;19.03;71.91;101205.81;2277183;78;51625;-73
2022/11/02 09:24:44;;;;;;;;;;;;;;;19.05;71.60;101203.80;2263460;78;50725;-73
2022/11/02 09:27:46;;;;;;;;;;;;;;;19.03;71.93;101217.05;2274895;77;50949;-73
2022/11/02 09:30:47;;;;;;;;;;;;;;;18.99;72.01;101209.03;2228896;79;50726;-73
2022/11/02 09:33:49;;;;;;;;;;;;;;;18.99;71.86;101220.59;2250366;79;51528;-73
2022/11/02 09:36:53;;;;;;;;;;;;;;;18.99;72.01;101225.12;2227828;79;51566;-77
2022/11/02 09:39:55;;;;;;;;;;;;;;;19.04;72.62;101212.03;2227457;79;50091;-74
2022/11/02 09:43:16;;;;;;;;;;;;;;;19.05;72.78;101213.69;2227528;79;50753;-72
2022/11/02 09:46:27;;;;;;;;;;;;;;;19.04;73.10;101220.08;2255298;77;50363;-72
2022/11/02 09:49:29;;;;;;;;;;;;;;;19.07;73.15;101223.75;2282150;78;50306;-72
2022/11/02 09:52:35;;;;;;;;;;;;;;;19.09;73.29;101225.77;2258888;78;51038;-74
2022/11/02 09:55:37;;;;;;;;;;;;;;;19.13;73.43;101225.22;2269734;78;51500;-73
2022/11/02 09:58:39;;;;;;;;;;;;;;;19.20;73.98;101224.55;2249074;78;50681;-72
2022/11/02 10:01:45;;;;;;;;;;;;;;;19.18;73.90;101223.87;2249275;79;50405;-72
2022/11/02 10:04:55;;;;;;;;;;;;;;;19.17;74.08;101227.08;2225805;79;51053;-73
2022/11/02 10:08:04;;;;;;;;;;;;;;;19.21;74.13;101233.75;2249298;78;50420;-74
2022/11/02 10:11:26;;;;;;;;;;;;;;;19.21;74.08;101223.02;2268493;77;50799;-72
2022/11/02 10:14:32;;;;;;;;;;;;;;;19.22;73.75;101228.73;2258027;77;51591;-71
2022/11/02 10:17:36;;;;;;;;;;;;;;;19.21;74.13;101227.04;2209580;78;50273;-75
2022/11/02 10:20:38;;;;;;;;;;;;;;;19.24;74.04;101237.45;2260147;78;51647;-75
2022/11/02 10:23:41;;;;;;;;;;;;;;;19.26;73.69;101233.23;2259264;78;50426;-75
2022/11/02 10:26:42;;;;;;;;;;;;;;;19.24;73.52;101229.41;2250864;78;51483;-76
2022/11/02 10:29:45;;;;;;;;;;;;;;;19.23;73.34;101234.42;2215064;77;52493;-76
2022/11/02 10:32:48;;;;;;;;;;;;;;;19.26;73.18;101234.58;2245938;78;50405;-76
2022/11/02 10:35:52;;;;;;;;;;;;;;;19.25;73.29;101228.38;2260071;78;50393;-75
2022/11/02 10:39:10;;;;;;;;;;;;;;;19.24;73.38;101233.42;2241861;77;50281;-75
2022/11/02 10:42:16;;;;;;;;;;;;;;;19.23;73.36;101241.13;2237204;78;51384;-75
2022/11/02 10:45:32;;;;;;;;;;;;;;;19.24;73.54;101235.25;2240475;78;51537;-75
2022/11/02 10:48:45;;;;;;;;;;;;;;;19.23;73.57;101226.37;2224862;78;50374;-76
2022/11/02 10:51:46;;;;;;;;;;;;;;;19.25;73.75;101227.55;2213543;78;50343;-75
2022/11/02 10:54:50;;;;;;;;;;;;;;;19.26;73.57;101235.41;2202947;80;50032;-75
2022/11/02 10:57:51;;;;;;;;;;;;;;;19.28;73.51;101237.93;2235270;78;50316;-75
2022/11/02 11:00:55;;;;;;;;;;;;;;;19.28;73.46;101239.27;2255252;78;51561;-75
2022/11/02 11:04:01;;;;;;;;;;;;;;;19.27;73.23;101235.76;2237446;78;50684;-75
2022/11/02 11:07:05;;;;;;;;;;;;;;;19.27;73.14;101237.09;2262930;78;51869;-75
2022/11/02 11:10:08;;;;;;;;;;;;;;;19.29;73.00;101243.13;2240662;77;50675;-75
2022/11/02 11:13:11;;;;;;;;;;;;;;;19.29;72.90;101244.48;2222917;80;50918;-75
2022/11/02 11:16:13;;;;;;;;;;;;;;;19.30;72.92;101246.14;2223495;80;51621;-75
2022/11/02 11:19:16;;;;;;;;;;;;;;;19.30;72.84;101248.83;2192322;80;50992;-75
2022/11/02 11:22:30;;;;;;;;;;;;;;;19.30;72.76;101256.04;2223734;80;51644;-75
2022/11/02 11:25:32;;;;;;;;;;;;;;;19.30;72.71;101259.55;2223686;80;50364;-75
2022/11/02 11:28:39;;;;;;;;;;;;;;;19.28;72.65;101267.45;2245967;78;51533;-75
2022/11/02 11:31:40;;;;;;;;;;;;;;;19.27;72.68;101267.13;2193033;80;22378;-75
2022/11/02 11:34:42;;;;;;;;;;;;;;;19.25;72.75;101261.92;2254807;78;50591;-75
2022/11/02 11:37:51;;;;;;;;;;;;;;;19.27;72.70;101265.78;2223876;80;50441;-75
2022/11/02 11:40:53;;;;;;;;;;;;;;;19.28;72.62;101265.59;2227437;78;51499;-75
2022/11/02 11:43:55;;;;;;;;;;;;;;;19.26;72.63;101266.77;2233651;78;51407;-75
2022/11/02 11:46:57;;;;;;;;;;;;;;;19.26;72.60;101264.09;2208283;80;50349;-75
2022/11/02 11:50:01;;;;;;;;;;;;;;;19.23;72.90;101262.59;2228658;78;51563;-75
2022/11/02 11:53:09;;;;;;;;;;;;;;;19.20;73.13;101265.62;2260555;78;51574;-75
2022/11/02 11:56:13;;;;;;;;;;;;;;;19.20;73.28;101256.74;2249337;78;51023;-75
2022/11/02 11:59:21;;;;;;;;;;;;;;;19.18;73.18;101260.92;2207845;78;51089;-75
2022/11/02 12:02:24;;;;;;;;;;;;;;;19.21;73.25;101259.23;2260765;78;50441;-78
2022/11/02 12:05:26;;;;;;;;;;;;;;;19.21;73.18;101251.19;2260235;78;50760;-76
2022/11/02 12:08:32;;;;;;;;;;;;;;;19.22;73.11;101248.02;2252622;78;51551;-75
2022/11/02 12:11:35;;;;;;;;;;;;;;;19.22;73.17;101256.07;2262149;77;52722;-75
2022/11/02 12:14:44;;;;;;;;;;;;;;;19.24;73.15;101261.59;2260853;77;51455;-75
2022/11/02 12:18:05;;;;;;;;;;;;;;;19.23;73.08;101257.22;2254844;77;52431;-75
2022/11/02 12:21:27;;;;;;;;;;;;;;;19.21;73.29;101253.87;2248183;78;51696;-74
2022/11/02 12:24:47;;;;;;;;;;;;;;;19.22;73.59;101262.78;2204255;78;51343;-73
2022/11/02 12:27:51;;;;;;;;;;;;;;;19.24;73.54;101255.38;2248173;78;50406;-74
2022/11/02 12:31:03;;;;;;;;;;;;;;;19.24;73.49;101248.66;2225498;78;51432;-73
2022/11/02 12:34:15;;;;;;;;;;;;;;;19.28;73.74;101241.45;2241714;78;50811;-76
2022/11/02 12:37:25;;;;;;;;;;;;;;;19.31;73.71;101251.83;2225755;78;51363;-75
2022/11/02 12:40:31;;;;;;;;;;;;;;;19.33;73.67;101248.98;2230401;78;50938;-76
2022/11/02 12:43:40;;;;;;;;;;;;;;;19.34;73.61;101239.91;2224359;80;51536;-75
2022/11/02 12:46:43;;;;;;;;;;;;;;;19.34;73.70;101250.16;2224439;80;50757;-76
2022/11/02 12:49:46;;;;;;;;;;;;;;;19.32;73.61;101252.17;2192919;80;51674;-75
2022/11/02 12:52:59;;;;;;;;;;;;;;;19.30;73.43;101250.67;2223968;80;51510;-77
2022/11/02 12:56:00;;;;;;;;;;;;;;;19.30;73.46;101246.65;2224197;80;52636;-75
2022/11/02 12:59:02;;;;;;;;;;;;;;;19.32;73.28;101252.69;2276570;77;50405;-76
2022/11/02 13:02:05;;;;;;;;;;;;;;;19.28;73.26;101252.17;2265726;77;51909;-76
2022/11/02 13:05:08;;;;;;;;;;;;;;;19.28;73.26;101258.88;2297904;77;50771;-76
2022/11/02 13:08:14;;;;;;;;;;;;;;;19.28;73.12;101253.52;2299455;77;51550;-76
2022/11/02 13:11:18;;;;;;;;;;;;;;;19.29;73.11;101259.72;2286002;77;50304;-76
2022/11/02 13:14:20;;;;;;;;;;;;;;;19.31;72.55;101258.53;2247763;78;50990;-76
2022/11/02 13:17:32;;;;;;;;;;;;;;;19.30;72.41;101260.90;2261026;78;50696;-75
2022/11/02 13:20:35;;;;;;;;;;;;;;;19.32;72.38;101263.42;2268645;78;50424;-76
2022/11/02 13:23:41;;;;;;;;;;;;;;;19.31;72.42;101267.09;2260965;78;50806;-76
2022/11/02 13:26:43;;;;;;;;;;;;;;;19.32;72.44;101272.81;2228315;78;52878;-75
2022/11/02 13:29:48;;;;;;;;;;;;;;;19.33;72.44;101266.42;2235194;77;49743;-74
2022/11/02 13:32:57;;;;;;;;;;;;;;;19.28;72.52;101265.59;2269140;78;50382;-73
2022/11/02 13:35:58;;;;;;;;;;;;;;;19.29;72.96;101271.31;2269116;78;51564;-73
2022/11/02 13:39:02;;;;;;;;;;;;;;;19.31;73.12;101268.44;2215097;78;52639;-72
2022/11/02 13:42:08;;;;;;;;;;;;;;;19.33;73.19;101270.45;2268845;78;51609;-74
2022/11/02 13:45:14;;;;;;;;;;;;;;;19.35;73.30;101275.14;2268499;78;50460;-75
2022/11/02 13:48:23;;;;;;;;;;;;;;;19.36;73.36;101265.56;2268369;78;50815;-76
2022/11/02 13:51:27;;;;;;;;;;;;;;;19.38;73.34;101268.08;2268849;78;50787;-74
2022/11/02 13:54:30;;;;;;;;;;;;;;;19.38;73.41;101267.25;2267951;78;51562;-72
2022/11/02 13:57:33;;;;;;;;;;;;;;;19.39;73.29;101268.91;2271644;78;51529;-72
2022/11/02 14:00:36;;;;;;;;;;;;;;;19.39;73.23;101260.86;2277410;78;50685;-72
2022/11/02 14:03:57;;;;;;;;;;;;;;;19.39;73.33;101268.91;2237007;78;52586;-72
2022/11/02 14:06:59;;;;;;;;;;;;;;;19.39;73.57;101259.52;2260818;78;51549;-73
2022/11/02 14:10:05;;;;;;;;;;;;;;;19.40;73.43;101270.61;2238427;78;50429;-73
2022/11/02 14:13:09;;;;;;;;;;;;;;;19.41;73.41;101266.90;2259510;78;50840;-72
2022/11/02 14:16:10;;;;;;;;;;;;;;;19.42;73.35;101264.53;2225494;78;50955;-73
2022/11/02 14:19:20;;;;;;;;;;;;;;;19.41;72.97;101274.95;2227501;78;50066;-73
2022/11/02 14:22:21;;;;;;;;;;;;;;;19.38;70.63;101273.96;2259596;78;50776;-73
2022/11/02 14:25:23;;;;;;;;;;;;;;;19.33;70.64;101283.35;2259493;78;51455;-73
2022/11/02 14:28:28;;;;;;;;;;;;;;;19.32;70.67;101277.66;2206533;78;52642;-73
2022/11/02 14:31:31;;;;;;;;;;;;;;;19.31;70.87;101286.70;2222439;80;51571;-73
2022/11/02 14:34:34;;;;;;;;;;;;;;;19.29;70.93;101284.72;2228202;78;50460;-73
2022/11/02 14:37:51;;;;;;;;;;;;;;;19.30;71.12;101283.70;2250490;78;50821;-76
2022/11/02 14:41:06;;;;;;;;;;;;;;;19.29;71.20;101282.05;2228763;78;50677;-77
2022/11/02 14:44:15;;;;;;;;;;;;;;;19.24;71.33;101292.45;2228922;78;50542;-76
2022/11/02 14:47:19;;;;;;;;;;;;;;;19.20;71.77;101297.81;2247852;77;50898;-76
2022/11/02 14:50:29;;;;;;;;;;;;;;;19.22;72.10;101306.54;2262254;78;50531;-75
2022/11/02 14:53:31;;;;;;;;;;;;;;;19.24;72.47;101309.89;2262428;78;21852;-75
2022/11/02 14:56:50;;;;;;;;;;;;;;;19.26;72.43;101314.56;2262030;78;51627;-76
2022/11/02 14:59:52;;;;;;;;;;;;;;;19.28;72.53;101321.94;2237495;78;50765;-75
2022/11/02 15:02:56;;;;;;;;;;;;;;;19.27;72.48;101322.95;2223834;80;51540;-75
2022/11/02 15:06:13;;;;;;;;;;;;;;;19.28;72.81;101325.96;2244926;78;23451;-76
2022/11/02 15:09:24;;;;;;;;;;;;;;;19.30;72.71;101326.64;2193192;81;50700;-76
2022/11/02 15:12:39;;;;;;;;;;;;;;;19.31;72.78;101335.00;2204468;78;22978;-78
2022/11/02 15:22:38;;;;;;;;;;;;;;;19.16;68.00;101344.76;2283630;77;23411;-77
2022/11/02 15:25:57;;;;;;;;;;;;;;;19.13;68.32;101343.77;2297024;76;50046;-77
2022/11/02 15:29:00;;;;;;;;;;;;;;;19.15;68.61;101349.80;2236001;78;22386;-77
2022/11/02 15:32:05;;;;;;;;;;;;;;;19.12;68.83;101348.30;2229744;79;22242;-77
2022/11/02 15:38:29;;;;;;;;;;;;;;;19.09;69.33;101357.20;2278940;78;22325;-76
2022/11/02 15:41:41;;;;;;;;;;;;;;;19.03;69.62;101361.37;2252564;78;50483;-75
2022/11/02 15:44:56;;;;;;;;;;;;;;;19.07;69.79;101365.41;2277291;78;51569;-75
2022/11/02 15:48:16;;;;;;;;;;;;;;;19.03;70.26;101359.20;2341294;75;51543;-76
2022/11/02 15:51:31;;;;;;;;;;;;;;;19.04;70.69;101375.64;2321218;76;49523;-76
2022/11/02 15:54:51;;;;;;;;;;;;;;;19.04;71.07;101379.16;2310586;76;51694;-76
2022/11/02 15:57:57;;;;;;;;;;;;;;;19.04;71.12;101376.47;2320621;76;50441;-74
2022/11/02 16:01:04;;;;;;;;;;;;;;;19.07;71.32;101373.95;2308536;76;50038;-74
2022/11/02 16:04:06;;;;;;;;;;;;;;;19.07;71.27;101373.95;2251198;75;51022;-75